Votaw, Texas
Current Conditions -  °F | °C
As of 2:35 PM on Friday 19 Dec 2014 (Local Time) from K6R3 Reporting Station
Light Rain Light Rain  
Wind Chill: 51°   Ceiling: 600
Heat Index: 51°   Visibility: 10mi
Dew Point: 51°   Wind: 5mph
Humidity: 99%   Direction: 30°NNE
Pressure: 30.05"   Gusts: NA
Location:  30.44°N, 94.67°W
Report Text: K6R3 192035Z AUTO 03004KT 10SM -RA OVC006 11/11 A3005 RMK AO2 P0001 T01070105
Loading
Personal Weather Stations






























Interactive Weather Map New forecast layout! Learn more

10-Day Weather Forecast

Advertisements
Track Severe Weather on mobile